Time;durP1;ratioP1;P1;durP2;ratioP2;P2;SDS_P1;SDS_P2;PMS_P1;PMS_P2;Temp;Humidity;BMP_temperature;BMP_pressure;BME280_temperature;BME280_humidity;BME280_pressure;Samples;Min_cycle;Max_cycle;Signal;HPM_P1;HPM_P2
2022/10/22 00:01:23;;;;;;;7.68;4.60;;;;;;;12.73;100.00;100820.38;4996840;28;20443;-87
2022/10/22 00:03:48;;;;;;;9.30;4.90;;;;;;;12.71;100.00;100812.59;4994514;28;20030;-87
2022/10/22 00:06:14;;;;;;;8.68;5.03;;;;;;;12.70;100.00;100820.63;5001936;28;20028;-87
2022/10/22 00:08:39;;;;;;;7.57;4.97;;;;;;;12.68;100.00;100817.28;5022760;28;20032;-86
2022/10/22 00:11:14;;;;;;;9.35;4.82;;;;;;;12.66;100.00;100820.06;5004035;28;20030;-87
2022/10/22 00:13:40;;;;;;;7.63;4.80;;;;;;;12.65;100.00;100814.91;5022433;28;20030;-87
2022/10/22 00:16:06;;;;;;;8.07;5.10;;;;;;;12.63;100.00;100814.19;5033021;28;20045;-86
2022/10/22 00:18:31;;;;;;;11.07;5.20;;;;;;;12.60;100.00;100804.72;5018131;28;20099;-87
2022/10/22 00:20:57;;;;;;;10.68;5.28;;;;;;;12.64;100.00;100806.16;5002299;28;20054;-87
2022/10/22 00:23:22;;;;;;;10.35;5.40;;;;;;;12.65;100.00;100812.25;5019437;28;20033;-88
2022/10/22 00:25:48;;;;;;;9.32;5.00;;;;;;;12.63;100.00;100814.19;5018586;28;20437;-88
2022/10/22 00:28:14;;;;;;;12.27;4.90;;;;;;;12.64;100.00;100808.78;5019426;28;20033;-88
2022/10/22 00:30:39;;;;;;;11.30;4.95;;;;;;;12.66;100.00;100806.03;5041294;28;20021;-87
2022/10/22 00:33:05;;;;;;;8.90;5.18;;;;;;;12.65;100.00;100807.81;5038251;28;20097;-88
2022/10/22 00:35:32;;;;;;;6.95;4.95;;;;;;;12.65;100.00;100812.25;5032126;28;20382;-88
2022/10/22 00:37:57;;;;;;;9.23;5.18;;;;;;;12.65;100.00;100818.38;5003361;28;20553;-86
2022/10/22 00:40:23;;;;;;;10.32;4.95;;;;;;;12.69;100.00;100821.59;5008896;28;20079;-88
2022/10/22 00:42:48;;;;;;;10.90;5.10;;;;;;;12.69;100.00;100821.59;5041654;28;20390;-86
2022/10/22 00:45:26;;;;;;;12.32;5.63;;;;;;;12.68;100.00;100818.13;5040538;28;20377;-87
2022/10/22 00:48:09;;;;;;;11.55;5.13;;;;;;;12.68;100.00;100818.13;5013408;28;20029;-87
2022/10/22 00:50:44;;;;;;;13.88;5.50;;;;;;;12.68;100.00;100819.94;4993428;28;20097;-87
2022/10/22 00:53:13;;;;;;;10.93;5.75;;;;;;;12.67;100.00;100819.09;5013387;28;20034;-87
2022/10/22 00:55:44;;;;;;;12.50;5.65;;;;;;;12.65;100.00;100813.09;5016820;28;20034;-87
2022/10/22 00:58:11;;;;;;;10.10;5.32;;;;;;;12.65;100.00;100813.09;5019563;28;20025;-88
2022/10/22 01:00:37;;;;;;;11.10;5.35;;;;;;;12.62;100.00;100804.59;5018765;28;20022;-88
2022/10/22 01:03:03;;;;;;;13.00;5.68;;;;;;;12.65;100.00;100814.91;5019313;28;20026;-89
2022/10/22 01:05:31;;;;;;;10.35;5.72;;;;;;;12.62;100.00;100813.38;5019818;28;20022;-88
2022/10/22 01:07:57;;;;;;;16.83;5.90;;;;;;;12.63;100.00;100814.19;5014442;28;20074;-88
2022/10/22 01:10:34;;;;;;;15.25;6.05;;;;;;;12.66;100.00;100819.22;4992914;28;20132;-88
2022/10/22 01:13:21;;;;;;;10.38;5.28;;;;;;;12.66;100.00;100813.94;5008983;28;20026;-88
2022/10/22 01:16:48;;;;;;;11.20;6.00;;;;;;;12.68;100.00;100817.28;5010895;28;20042;-88
2022/10/22 01:19:44;;;;;;;15.52;5.85;;;;;;;12.64;100.00;100816.72;4971949;28;20048;-88
2022/10/22 01:22:19;;;;;;;13.65;6.10;;;;;;;12.63;100.00;100819.47;4991941;28;20079;-88
2022/10/22 01:25:05;;;;;;;9.43;6.03;;;;;;;12.62;100.00;100817.81;5011041;28;20026;-88
2022/10/22 01:27:44;;;;;;;11.23;6.07;;;;;;;12.54;100.00;100807.88;5005471;28;20033;-88
2022/10/22 01:30:13;;;;;;;11.98;5.95;;;;;;;12.53;100.00;100804.41;5029536;28;20052;-88
2022/10/22 01:32:43;;;;;;;9.55;6.07;;;;;;;12.52;100.00;100810.66;5030585;28;20532;-87
2022/10/22 01:35:16;;;;;;;12.40;5.97;;;;;;;12.50;100.00;100809.09;5011502;28;20029;-88
2022/10/22 01:37:52;;;;;;;;;;;;;;;12.61;100.00;100814.31;5012727;28;20078;-88
2022/10/22 01:40:20;;;;;;;8.80;5.65;;;;;;;12.45;100.00;100806.84;5029317;28;19916;-88
2022/10/22 01:42:57;;;;;;;13.18;6.55;;;;;;;12.45;100.00;100798.94;5010243;28;20072;-88
2022/10/22 01:45:23;;;;;;;12.32;6.40;;;;;;;12.43;100.00;100802.66;4993559;28;20026;-88
2022/10/22 01:48:19;;;;;;;10.98;5.82;;;;;;;12.42;100.00;100804.47;4992815;28;20493;-88
2022/10/22 01:50:53;;;;;;;13.52;6.00;;;;;;;12.32;100.00;100795.59;5006462;28;20061;-88
2022/10/22 01:53:48;;;;;;;15.02;6.20;;;;;;;12.35;100.00;100805.91;5011459;28;20112;-88
2022/10/22 01:56:25;;;;;;;11.68;6.35;;;;;;;12.36;100.00;100801.47;5028429;28;20436;-88
2022/10/22 01:59:04;;;;;;;13.98;5.90;;;;;;;12.34;100.00;100798.97;5030221;28;20022;-88
2022/10/22 02:01:39;;;;;;;14.23;5.82;;;;;;;12.34;100.00;100811.31;5022930;28;20531;-87
2022/10/22 02:04:16;;;;;;;10.02;5.72;;;;;;;12.31;100.00;100807.13;5029174;28;20028;-87
2022/10/22 02:06:47;;;;;;;20.08;6.70;;;;;;;12.26;100.00;100811.09;5030181;28;20057;-87
2022/10/22 02:09:16;;;;;;;11.85;5.80;;;;;;;12.28;100.00;100810.00;5029576;28;20029;-87
2022/10/22 02:11:50;;;;;;;14.98;6.35;;;;;;;12.23;100.00;100807.75;5012079;28;20033;-88
2022/10/22 02:14:18;;;;;;;13.93;6.60;;;;;;;12.23;100.00;100812.19;5011773;28;20029;-88
2022/10/22 02:16:46;;;;;;;12.88;6.25;;;;;;;12.24;100.00;100819.97;5008177;28;20421;-88
2022/10/22 02:19:38;;;;;;;16.13;5.88;;;;;;;12.24;100.00;100813.88;5013455;28;20478;-87
2022/10/22 02:22:06;;;;;;;15.80;6.10;;;;;;;12.22;100.00;100815.78;5013637;28;20034;-87
2022/10/22 02:24:37;;;;;;;12.50;6.13;;;;;;;12.21;100.00;100814.13;5012333;28;20501;-87
2022/10/22 02:27:23;;;;;;;14.10;6.18;;;;;;;12.24;100.00;100819.16;5015889;28;20548;-88
2022/10/22 02:30:03;;;;;;;14.15;6.07;;;;;;;12.21;100.00;100814.13;5033001;28;20424;-87
2022/10/22 02:32:44;;;;;;;13.25;6.38;;;;;;;12.20;100.00;100812.44;5029018;28;20025;-88
2022/10/22 02:35:19;;;;;;;12.63;6.22;;;;;;;12.17;100.00;100810.06;4995652;28;20112;-88
2022/10/22 02:37:45;;;;;;;12.50;6.40;;;;;;;12.16;100.00;100809.22;4994464;28;20533;-88
2022/10/22 02:40:12;;;;;;;12.93;6.22;;;;;;;12.18;100.00;100809.09;5011172;28;20040;-88
2022/10/22 02:42:41;;;;;;;15.57;6.32;;;;;;;12.15;100.00;100804.06;5012920;28;20041;-88
2022/10/22 02:45:07;;;;;;;15.02;6.70;;;;;;;12.15;100.00;100814.63;4994440;28;20025;-88
2022/10/22 02:47:40;;;;;;;13.18;6.45;;;;;;;12.16;100.00;100805.75;5012380;28;20029;-88
2022/10/22 02:50:06;;;;;;;;;;;;;;;12.26;100.00;100816.38;5003257;28;20025;-87
2022/10/22 02:52:38;;;;;;;15.18;6.57;;;;;;;12.17;100.00;100812.69;5013172;28;19909;-88
2022/10/22 02:55:06;;;;;;;16.20;6.53;;;;;;;12.18;100.00;100822.28;5014298;28;20021;-87
2022/10/22 02:57:32;;;;;;;16.00;6.68;;;;;;;12.14;100.00;100819.06;5032408;28;20474;-87
2022/10/22 02:59:58;;;;;;;15.57;6.45;;;;;;;12.14;100.00;100815.59;5014009;28;20037;-87
2022/10/22 03:02:23;;;;;;;16.83;6.72;;;;;;;12.13;100.00;100817.38;5032218;28;20032;-87
2022/10/22 03:04:49;;;;;;;14.98;6.20;;;;;;;12.14;100.00;100818.22;5014806;28;20385;-88
2022/10/22 03:07:14;;;;;;;11.93;6.47;;;;;;;12.15;100.00;100825.19;5009386;28;20024;-88
2022/10/22 03:09:43;;;;;;;14.40;6.28;;;;;;;12.14;100.00;100828.78;5012402;28;20510;-87
2022/10/22 03:12:17;;;;;;;11.73;5.97;;;;;;;12.11;100.00;100829.03;4994697;28;20032;-87
2022/10/22 03:14:47;;;;;;;16.48;6.45;;;;;;;12.09;100.00;100821.22;4993939;28;20079;-87
2022/10/22 03:17:15;;;;;;;12.57;6.10;;;;;;;12.10;100.00;100822.06;5011681;28;20025;-88
2022/10/22 03:19:41;;;;;;;23.13;7.13;;;;;;;12.11;100.00;100829.03;5012904;28;20501;-87
2022/10/22 03:22:22;;;;;;;14.80;6.43;;;;;;;12.13;100.00;100832.38;5031774;28;20060;-88
2022/10/22 03:24:51;;;;;;;11.27;5.80;;;;;;;12.11;100.00;100839.56;5021585;28;20457;-87
2022/10/22 03:27:20;;;;;;;14.68;6.05;;;;;;;12.11;100.00;100840.41;5015344;28;20028;-88
2022/10/22 03:29:49;;;;;;;16.67;6.50;;;;;;;12.10;100.00;100829.97;5031575;28;20036;-88
2022/10/22 03:32:17;;;;;;;11.30;5.65;;;;;;;12.09;100.00;100837.06;5031249;28;20021;-88
2022/10/22 03:34:42;;;;;;;15.02;5.75;;;;;;;12.12;100.00;100833.34;5013248;28;20033;-87
2022/10/22 03:37:08;;;;;;;16.05;5.93;;;;;;;12.11;100.00;100835.13;5031144;28;20492;-88
2022/10/22 03:39:35;;;;;;;15.55;6.10;;;;;;;12.09;100.00;100841.50;5030999;28;20053;-87
2022/10/22 03:42:03;;;;;;;11.15;6.07;;;;;;;12.12;100.00;100843.88;5029048;28;20024;-88
2022/10/22 03:44:29;;;;;;;18.60;6.47;;;;;;;12.13;100.00;100848.19;5009157;28;20040;-88
2022/10/22 03:46:54;;;;;;;15.23;6.97;;;;;;;12.17;100.00;100853.09;4994146;28;20021;-88
2022/10/22 03:49:20;;;;;;;18.42;7.15;;;;;;;12.20;100.00;100850.22;5009992;28;20057;-88
2022/10/22 03:51:50;;;;;;;18.02;6.95;;;;;;;12.20;100.00;100855.50;4993893;28;20548;-88
2022/10/22 03:54:19;;;;;;;18.98;7.05;;;;;;;12.18;100.00;100853.94;5011066;28;20030;-88
2022/10/22 03:56:44;;;;;;;20.00;6.95;;;;;;;12.23;100.00;100870.22;5011178;28;20034;-88
2022/10/22 03:59:13;;;;;;;24.25;8.05;;;;;;;12.25;100.00;100863.03;5002251;28;20090;-89
2022/10/22 04:01:42;;;;;;;21.27;7.75;;;;;;;12.24;100.00;100867.47;5030964;28;20541;-88
2022/10/22 04:04:07;;;;;;;24.08;7.88;;;;;;;12.24;100.00;100858.72;5030271;28;20017;-89
2022/10/22 04:06:36;;;;;;;24.73;7.97;;;;;;;12.22;100.00;100855.38;5013371;28;20059;-88
2022/10/22 04:09:04;;;;;;;24.85;8.23;;;;;;;12.23;100.00;100857.88;5030147;28;20086;-88
2022/10/22 04:11:33;;;;;;;23.92;8.35;;;;;;;12.24;100.00;100864.00;5030723;28;20041;-88
2022/10/22 04:14:00;;;;;;;25.80;8.68;;;;;;;12.31;100.00;100866.97;5013036;28;20025;-88
2022/10/22 04:16:31;;;;;;;26.80;8.65;;;;;;;12.30;100.00;100871.41;5028218;28;20049;-88
2022/10/22 04:19:03;;;;;;;23.60;7.85;;;;;;;12.32;100.00;100868.66;5012982;28;20030;-88
2022/10/22 04:21:29;;;;;;;28.65;8.07;;;;;;;12.34;100.00;100869.34;5031087;28;20030;-88
2022/10/22 04:23:54;;;;;;;25.77;8.23;;;;;;;12.37;100.00;100869.94;5012960;28;20021;-88
2022/10/22 04:26:20;;;;;;;21.65;7.88;;;;;;;12.38;100.00;100878.69;5030557;28;20025;-88
2022/10/22 04:28:47;;;;;;;23.88;8.50;;;;;;;12.38;100.00;100868.97;5012917;28;20095;-88
2022/10/22 04:31:15;;;;;;;21.00;7.32;;;;;;;12.39;100.00;100869.81;5029487;28;20029;-88
2022/10/22 04:33:44;;;;;;;25.98;7.38;;;;;;;12.39;100.00;100869.81;5011742;28;20486;-89
2022/10/22 04:36:12;;;;;;;25.35;7.35;;;;;;;12.41;100.00;100871.41;5013774;28;20498;-89
2022/10/22 04:38:39;;;;;;;23.27;7.65;;;;;;;12.41;100.00;100873.19;5009790;28;20105;-89
2022/10/22 04:41:17;;;;;;;22.25;7.30;;;;;;;12.40;100.00;100872.34;5011210;28;20478;-89
2022/10/22 04:43:43;;;;;;;26.33;8.57;;;;;;;12.43;100.00;100872.09;5011590;28;20447;-89
2022/10/22 04:46:13;;;;;;;25.58;7.55;;;;;;;12.43;100.00;100880.03;5010594;28;20113;-88
2022/10/22 04:48:47;;;;;;;24.60;8.05;;;;;;;12.46;100.00;100876.31;4992674;28;20022;-89
2022/10/22 04:51:18;;;;;;;21.83;7.43;;;;;;;12.44;100.00;100879.06;4995876;28;20375;-89
2022/10/22 04:53:45;;;;;;;20.63;7.40;;;;;;;12.49;100.00;100876.06;5011419;28;20018;-88
2022/10/22 04:56:15;;;;;;;23.00;7.93;;;;;;;12.47;100.00;100876.19;5010520;28;20110;-89
2022/10/22 04:58:47;;;;;;;18.52;6.88;;;;;;;12.49;100.00;100879.53;5010312;28;20080;-88
2022/10/22 05:01:19;;;;;;;20.90;7.15;;;;;;;12.51;100.00;100879.41;5016427;28;20060;-90
2022/10/22 05:03:45;;;;;;;20.73;7.77;;;;;;;12.52;100.00;100881.06;5013168;28;20033;-90
2022/10/22 05:06:12;;;;;;;26.13;7.53;;;;;;;12.51;100.00;100880.25;5008819;28;20049;-88
2022/10/22 05:08:38;;;;;;;24.67;7.88;;;;;;;12.58;100.00;100883.22;5015553;28;20533;-89
2022/10/22 05:11:15;;;;;;;21.30;7.35;;;;;;;12.60;100.00;100888.34;5009325;28;20362;-89
2022/10/22 05:13:40;;;;;;;19.65;7.30;;;;;;;12.63;100.00;100888.09;5010784;28;20021;-90
2022/10/22 05:16:12;;;;;;;23.13;7.45;;;;;;;12.63;100.00;100888.09;4999095;28;20049;-89
2022/10/22 05:18:39;;;;;;;20.88;6.75;;;;;;;12.62;100.00;100883.78;5030488;28;20033;-89
2022/10/22 05:21:15;;;;;;;18.75;6.93;;;;;;;12.68;100.00;100896.47;5029932;28;20025;-88
2022/10/22 05:23:59;;;;;;;22.20;7.18;;;;;;;12.71;100.00;100891.78;5013181;28;20492;-89
2022/10/22 05:26:28;;;;;;;20.10;6.70;;;;;;;12.77;100.00;100895.72;5008828;28;20025;-89
2022/10/22 05:29:17;;;;;;;17.40;6.47;;;;;;;12.78;100.00;100895.59;5030155;28;20029;-88
2022/10/22 05:31:45;;;;;;;20.00;6.45;;;;;;;12.78;100.00;100887.69;5015717;28;20029;-89
2022/10/22 05:34:13;;;;;;;18.77;5.93;;;;;;;12.79;100.00;100893.78;5035982;28;20021;-88
2022/10/22 05:36:38;;;;;;;18.15;6.00;;;;;;;12.79;100.00;100893.78;5018047;28;20474;-88
2022/10/22 05:39:04;;;;;;;16.63;5.20;;;;;;;12.79;100.00;100901.72;5034000;28;20108;-89
2022/10/22 05:41:31;;;;;;;22.90;5.38;;;;;;;12.77;100.00;100903.66;5029139;28;20060;-89
2022/10/22 05:43:58;;;;;;;15.55;5.35;;;;;;;12.77;100.00;100898.38;4996882;28;20099;-89
2022/10/22 05:46:29;;;;;;;14.98;5.28;;;;;;;12.78;100.00;100906.16;4993508;28;20040;-89
2022/10/22 05:49:00;;;;;;;16.35;5.10;;;;;;;12.79;100.00;100914.91;5010086;28;20025;-89
2022/10/22 05:51:34;;;;;;;17.73;4.93;;;;;;;12.74;100.00;100906.53;4992463;28;20112;-89
2022/10/22 05:54:05;;;;;;;12.68;4.70;;;;;;;12.77;100.00;100914.19;4996521;28;20034;-89
2022/10/22 05:56:34;;;;;;;14.15;4.78;;;;;;;12.72;100.00;100913.75;5012830;28;20022;-89
2022/10/22 05:59:02;;;;;;;18.50;4.63;;;;;;;12.72;100.00;100919.03;5014949;28;20044;-88
2022/10/22 06:01:34;;;;;;;9.05;4.15;;;;;;;12.71;100.00;100927.91;5011643;28;20028;-89
2022/10/22 06:04:01;;;;;;;11.57;4.10;;;;;;;12.67;100.00;100926.50;5015653;28;20037;-89
2022/10/22 06:06:29;;;;;;;14.27;4.15;;;;;;;12.66;100.00;100930.09;5033449;28;20152;-89
2022/10/22 06:08:56;;;;;;;11.95;4.32;;;;;;;12.63;100.00;100933.81;5033389;28;20104;-89
2022/10/22 06:11:22;;;;;;;14.77;4.28;;;;;;;12.64;100.00;100932.84;5033497;28;20045;-89
2022/10/22 06:14:06;;;;;;;15.10;4.35;;;;;;;12.67;100.00;100939.69;5031629;28;20037;-89
2022/10/22 06:16:33;;;;;;;13.30;4.50;;;;;;;12.60;100.00;100935.88;5023634;28;20506;-89
2022/10/22 06:19:02;;;;;;;11.60;4.07;;;;;;;12.64;100.00;100943.41;5025832;28;20041;-89
2022/10/22 06:21:34;;;;;;;13.57;4.30;;;;;;;12.63;100.00;100954.09;4995733;28;20044;-89
2022/10/22 06:24:20;;;;;;;11.55;4.15;;;;;;;12.62;100.00;100960.34;5013040;28;20026;-89
2022/10/22 06:26:49;;;;;;;14.40;4.32;;;;;;;12.64;100.00;100953.97;4995985;28;20129;-83
2022/10/22 06:29:15;;;;;;;12.85;4.35;;;;;;;12.64;100.00;100967.16;5002639;28;20040;-82
2022/10/22 06:31:46;;;;;;;17.60;4.38;;;;;;;12.62;100.00;100966.47;5031514;28;20022;-82
2022/10/22 06:34:13;;;;;;;13.43;4.25;;;;;;;12.65;100.00;100970.66;4994671;28;20026;-84
2022/10/22 06:36:42;;;;;;;12.30;4.03;;;;;;;12.62;100.00;100978.81;4994579;28;20112;-84
2022/10/22 06:39:20;;;;;;;13.27;3.78;;;;;;;12.61;100.00;100979.78;5012510;28;20097;-84
2022/10/22 06:41:46;;;;;;;15.88;3.60;;;;;;;12.60;100.00;100981.59;4995689;28;20553;-89
2022/10/22 06:44:16;;;;;;;10.43;3.42;;;;;;;12.55;100.00;100978.47;5010660;28;20025;-90
2022/10/22 06:46:41;;;;;;;15.57;4.10;;;;;;;12.57;100.00;100986.28;5013442;28;20025;-90
2022/10/22 06:49:11;;;;;;;11.23;3.42;;;;;;;12.54;100.00;100993.47;5016663;28;20056;-89
2022/10/22 06:51:36;;;;;;;14.90;3.85;;;;;;;12.58;100.00;100996.72;5007337;28;20124;-88
2022/10/22 06:54:02;;;;;;;14.38;3.97;;;;;;;12.55;100.00;100995.16;5029975;28;20104;-89
2022/10/22 06:56:28;;;;;;;11.82;3.92;;;;;;;12.55;100.00;101003.06;5032179;28;20036;-88
2022/10/22 06:58:58;;;;;;;12.70;3.78;;;;;;;12.54;100.00;101013.75;5018159;28;20100;-88
2022/10/22 07:01:26;;;;;;;11.45;3.38;;;;;;;12.54;100.00;101009.31;5005762;28;20026;-88
2022/10/22 07:03:52;;;;;;;11.07;3.47;;;;;;;12.53;100.00;101015.56;4994589;28;20079;-88
2022/10/22 07:06:19;;;;;;;13.05;3.50;;;;;;;12.53;100.00;101022.63;5009975;28;20018;-88
2022/10/22 07:08:45;;;;;;;15.27;3.67;;;;;;;12.55;100.00;101024.19;5012781;28;20029;-88
2022/10/22 07:11:16;;;;;;;12.73;3.65;;;;;;;12.60;100.00;101030.91;5026070;28;20026;-82
2022/10/22 07:13:42;;;;;;;9.60;3.70;;;;;;;12.65;100.00;101034.00;5013368;28;20053;-83
2022/10/22 07:16:08;;;;;;;13.95;3.90;;;;;;;12.70;100.00;101031.84;5030073;28;20075;-89
2022/10/22 07:18:34;;;;;;;11.40;3.55;;;;;;;12.75;100.00;101040.22;5030966;28;20124;-88
2022/10/22 07:21:00;;;;;;;11.20;3.50;;;;;;;12.81;100.00;101045.03;5011472;28;20109;-88
2022/10/22 07:23:27;;;;;;;13.82;3.28;;;;;;;12.82;100.00;101039.63;5012063;28;20120;-87
2022/10/22 07:25:52;;;;;;;18.42;4.05;;;;;;;12.86;100.00;101042.88;5012855;28;20028;-87
2022/10/22 07:28:18;;;;;;;17.65;3.83;;;;;;;12.90;100.00;101044.28;5015556;28;20029;-88
2022/10/22 07:30:43;;;;;;;10.35;3.33;;;;;;;12.93;100.00;101046.69;5012602;28;20025;-88
2022/10/22 07:33:08;;;;;;;15.30;3.30;;;;;;;12.95;100.00;101052.69;5031211;28;20029;-87
2022/10/22 07:35:36;;;;;;;9.73;3.08;;;;;;;12.96;100.00;101064.94;5013756;28;20068;-87
2022/10/22 07:38:01;;;;;;;18.20;3.50;;;;;;;12.96;100.00;101066.72;5013902;28;20021;-88
2022/10/22 07:40:26;;;;;;;9.05;3.28;;;;;;;12.98;100.00;101060.38;5030875;28;20032;-87
2022/10/22 07:42:52;;;;;;;8.60;3.08;;;;;;;13.05;100.00;101065.97;5005127;28;20030;-87
2022/10/22 07:45:17;;;;;;;10.15;2.97;;;;;;;13.12;100.00;101065.34;5020968;28;20076;-83
2022/10/22 07:47:43;;;;;;;12.90;2.95;;;;;;;13.16;100.00;101066.78;5021007;28;20100;-83
2022/10/22 07:50:15;;;;;;;11.85;3.38;;;;;;;13.20;100.00;101071.84;5022596;28;20025;-83
2022/10/22 07:52:41;;;;;;;9.77;3.60;;;;;;;13.22;100.00;101075.22;5020460;28;20022;-87
2022/10/22 07:55:07;;;;;;;15.02;3.30;;;;;;;13.27;100.00;101078.34;5019004;28;20508;-87
2022/10/22 07:57:32;;;;;;;12.85;3.22;;;;;;;13.34;100.00;101079.50;5011336;28;20040;-87
2022/10/22 07:59:58;;;;;;;10.32;3.58;;;;;;;13.36;100.00;101078.41;5010299;28;20024;-87
2022/10/22 08:02:24;;;;;;;15.23;3.58;;;;;;;13.38;100.00;101080.94;5010815;28;20201;-87
2022/10/22 08:04:50;;;;;;;13.80;3.13;;;;;;;13.43;100.00;101091.97;5020350;28;20021;-87
2022/10/22 08:07:16;;;;;;;11.68;2.92;;;;;;;13.45;100.00;101097.97;5009219;28;20025;-88
2022/10/22 08:09:41;;;;;;;8.20;2.70;;;;;;;13.52;100.00;101093.84;5022194;28;20044;-87
2022/10/22 08:12:06;;;;;;;11.65;3.08;;;;;;;13.59;100.00;101094.19;5003508;28;20024;-88
2022/10/22 08:14:32;;;;;;;13.20;3.05;;;;;;;13.67;100.00;101102.34;5023752;28;20362;-87
2022/10/22 08:16:57;;;;;;;13.15;2.97;;;;;;;13.71;100.00;101096.66;5020138;28;20403;-88
2022/10/22 08:19:23;;;;;;;13.63;2.97;;;;;;;13.81;100.00;101104.66;5019183;28;20112;-88
2022/10/22 08:21:48;;;;;;;13.10;2.97;;;;;;;13.92;100.00;101101.94;5021509;28;20026;-88
2022/10/22 08:24:13;;;;;;;11.55;3.05;;;;;;;13.98;100.00;101108.53;5002828;28;20017;-87
2022/10/22 08:26:40;;;;;;;10.30;2.58;;;;;;;14.03;100.00;101112.50;5022926;28;20492;-88
2022/10/22 08:29:06;;;;;;;12.98;2.92;;;;;;;14.13;100.00;101123.13;5021724;28;20382;-87
2022/10/22 08:31:32;;;;;;;10.90;3.28;;;;;;;14.28;100.00;101128.94;5021150;28;20018;-85
2022/10/22 08:33:57;;;;;;;11.75;3.13;;;;;;;14.45;100.00;101130.19;5001651;28;20033;-88
2022/10/22 08:36:23;;;;;;;9.02;2.40;;;;;;;14.53;100.00;101128.56;5002133;28;20132;-88
2022/10/22 08:38:48;;;;;;;11.18;2.58;;;;;;;14.65;100.00;101130.13;5003749;28;20048;-87
2022/10/22 08:41:20;;;;;;;9.73;2.50;;;;;;;14.75;100.00;101143.41;5018555;28;20025;-88
2022/10/22 08:44:48;;;;;;;9.60;2.65;;;;;;;14.83;100.00;101140.97;5014423;28;20044;-88
2022/10/22 08:47:31;;;;;;;11.85;2.63;;;;;;;14.95;100.00;101142.53;4967155;28;20393;-88
2022/10/22 08:49:59;;;;;;;9.68;2.78;;;;;;;15.00;100.00;101153.56;5003623;28;20560;-88
2022/10/22 08:52:27;;;;;;;13.00;2.28;;;;;;;15.08;100.00;101154.69;5030017;28;20500;-88
2022/10/22 08:54:58;;;;;;;10.75;2.70;;;;;;;15.10;100.00;101160.69;5030760;28;20501;-88
2022/10/22 08:57:44;;;;;;;12.25;2.45;;;;;;;15.16;100.00;101162.81;5007025;28;20045;-88
2022/10/22 09:00:19;;;;;;;11.15;2.65;;;;;;;15.17;99.52;101160.00;4999613;28;20033;-85
2022/10/22 09:02:55;;;;;;;9.73;3.08;;;;;;;15.24;100.00;101168.28;5016274;28;20036;-87
2022/10/22 09:05:58;;;;;;;10.65;2.78;;;;;;;15.28;100.00;101172.34;5001430;28;20463;-87
2022/10/22 09:08:23;;;;;;;13.50;2.50;;;;;;;15.30;99.16;101176.53;4992622;28;20029;-87
2022/10/22 09:10:56;;;;;;;11.77;2.55;;;;;;;15.32;98.28;101179.88;4992557;28;20323;-87
2022/10/22 09:13:22;;;;;;;11.40;2.55;;;;;;;15.32;98.22;101189.66;5009241;28;20060;-86
2022/10/22 09:15:53;;;;;;;12.02;2.50;;;;;;;15.27;98.11;101186.56;5005640;28;20140;-85
2022/10/22 09:18:18;;;;;;;12.65;2.97;;;;;;;15.26;97.52;101187.53;5018301;28;20025;-85
2022/10/22 09:20:53;;;;;;;11.68;3.05;;;;;;;15.25;98.66;101189.34;5024418;28;20112;-85
2022/10/22 09:23:35;;;;;;;10.32;2.97;;;;;;;15.24;98.82;101195.63;5027658;28;20366;-85
2022/10/22 09:26:01;;;;;;;8.90;2.40;;;;;;;15.24;98.42;101200.09;5027499;28;20477;-86
2022/10/22 09:28:27;;;;;;;10.23;2.08;;;;;;;15.25;99.34;101199.97;5029461;28;20025;-86
2022/10/22 09:30:52;;;;;;;13.20;2.67;;;;;;;15.23;99.18;101196.59;5023692;28;20036;-87
2022/10/22 09:33:29;;;;;;;9.95;2.55;;;;;;;15.27;99.17;101207.78;5027843;28;20075;-86
2022/10/22 09:36:02;;;;;;;11.50;2.50;;;;;;;15.28;97.85;101209.47;5002936;28;20029;-87
2022/10/22 09:38:45;;;;;;;15.07;2.85;;;;;;;15.28;99.70;101220.91;5029887;28;20036;-85
2022/10/22 09:41:11;;;;;;;11.75;2.80;;;;;;;15.29;97.71;101216.44;5028299;28;20032;-87
2022/10/22 09:43:36;;;;;;;15.70;2.90;;;;;;;15.31;97.65;101225.94;5029863;28;20029;-86
2022/10/22 09:46:04;;;;;;;10.50;2.42;;;;;;;15.34;97.33;101224.81;5012072;28;20056;-86
2022/10/22 09:48:38;;;;;;;12.25;2.90;;;;;;;15.40;97.58;101218.97;5029428;28;20025;-87
2022/10/22 09:51:18;;;;;;;9.48;2.60;;;;;;;15.45;97.90;101227.34;5029831;28;20029;-86
2022/10/22 09:53:54;;;;;;;8.88;2.50;;;;;;;15.51;97.11;101225.97;5029444;28;20107;-85
2022/10/22 09:56:26;;;;;;;13.88;2.80;;;;;;;15.49;96.67;101230.56;5028018;28;20060;-86
2022/10/22 09:58:55;;;;;;;12.70;2.40;;;;;;;15.55;96.70;101233.53;5030246;28;20025;-86
2022/10/22 10:01:25;;;;;;;12.52;2.88;;;;;;;15.59;96.07;101245.56;5004496;28;20385;-86
2022/10/22 10:03:51;;;;;;;10.82;2.72;;;;;;;15.61;95.89;101246.28;5003088;28;20014;-86
2022/10/22 10:06:19;;;;;;;10.38;2.65;;;;;;;15.60;95.47;101255.19;5024621;28;20424;-86
2022/10/22 10:08:44;;;;;;;10.60;2.90;;;;;;;15.61;95.70;101258.72;5002296;28;20037;-86
2022/10/22 10:11:22;;;;;;;8.07;2.33;;;;;;;15.60;95.78;101262.31;5027400;28;20481;-86
2022/10/22 10:13:54;;;;;;;10.15;2.97;;;;;;;15.61;96.06;101264.88;5028121;28;20025;-86
2022/10/22 10:16:41;;;;;;;14.20;2.50;;;;;;;15.65;96.50;101271.56;5007794;28;20042;-85
2022/10/22 10:19:13;;;;;;;13.63;2.92;;;;;;;15.62;96.67;101269.19;5008531;28;20033;-85
2022/10/22 10:22:13;;;;;;;10.68;2.75;;;;;;;15.70;96.94;101272.97;5025040;28;20582;-86
2022/10/22 10:25:15;;;;;;;11.88;2.88;;;;;;;15.78;97.35;101281.09;5028259;28;20057;-84
2022/10/22 10:28:02;;;;;;;11.32;2.80;;;;;;;15.88;96.08;101274.81;5028072;28;20029;-86
2022/10/22 10:30:29;;;;;;;10.52;2.28;;;;;;;15.91;95.09;101276.34;5028282;28;20036;-86
2022/10/22 10:33:19;;;;;;;10.52;2.30;;;;;;;15.97;95.30;101281.94;5028949;28;20076;-86
2022/10/22 10:35:54;;;;;;;11.75;2.75;;;;;;;16.03;94.03;101277.94;5028815;28;20036;-86
2022/10/22 10:38:52;;;;;;;12.48;2.80;;;;;;;16.09;94.39;101280.03;5028820;28;20026;-85
2022/10/22 10:41:48;;;;;;;10.88;2.58;;;;;;;16.14;94.54;101282.25;5032341;28;20030;-85
2022/10/22 10:44:27;;;;;;;9.70;2.80;;;;;;;16.18;93.77;101287.16;5030157;28;20120;-85
2022/10/22 10:47:01;;;;;;;10.05;2.10;;;;;;;16.26;91.68;101286.44;5013433;28;20116;-86
2022/10/22 10:49:32;;;;;;;9.48;2.45;;;;;;;16.31;91.77;101289.53;5011536;28;20034;-86
2022/10/22 10:52:15;;;;;;;14.68;3.35;;;;;;;16.46;92.43;101289.97;5012443;28;20104;-85
2022/10/22 10:55:11;;;;;;;11.23;2.67;;;;;;;16.51;91.47;101285.06;5011845;28;20030;-85
2022/10/22 10:57:51;;;;;;;10.30;2.55;;;;;;;16.50;90.51;101288.69;5012609;28;20033;-86
2022/10/22 11:00:18;;;;;;;12.07;2.40;;;;;;;16.61;91.07;101285.88;5011451;28;20120;-86
2022/10/22 11:02:53;;;;;;;11.25;2.42;;;;;;;16.68;89.46;101287.03;5011701;28;20038;-86
2022/10/22 11:05:24;;;;;;;13.30;2.55;;;;;;;16.69;89.68;101278.06;5010454;28;20025;-86
2022/10/22 11:07:56;;;;;;;11.45;2.33;;;;;;;16.73;89.83;101283.94;4998171;28;20069;-86
2022/10/22 11:10:35;;;;;;;10.55;2.60;;;;;;;16.89;88.80;101293.00;4992792;28;20030;-86
2022/10/22 11:13:23;;;;;;;13.35;2.88;;;;;;;17.08;88.60;101280.63;4992390;28;20026;-85
2022/10/22 11:16:02;;;;;;;12.05;2.97;;;;;;;17.16;85.81;101291.38;4989916;28;20041;-85
2022/10/22 11:18:34;;;;;;;9.60;2.50;;;;;;;17.11;85.75;101285.66;5028560;28;20033;-86
2022/10/22 11:21:07;;;;;;;15.23;3.00;;;;;;;17.10;85.91;101294.63;5014445;28;20021;-85
2022/10/22 11:24:19;;;;;;;9.90;2.78;;;;;;;17.06;87.65;101294.06;5013930;28;20026;-84
2022/10/22 11:26:47;;;;;;;10.20;2.65;;;;;;;17.17;85.22;101290.38;5031611;28;20113;-85
2022/10/22 11:29:20;;;;;;;11.40;2.83;;;;;;;17.34;83.91;101289.66;5031537;28;20031;-85
2022/10/22 11:31:46;;;;;;;10.82;2.55;;;;;;;17.52;84.56;101279.88;5032227;28;20100;-85